Time;durP1;ratioP1;P1;durP2;ratioP2;P2;SDS_P1;SDS_P2;PMS_P1;PMS_P2;Temp;Humidity;BMP_temperature;BMP_pressure;BME280_temperature;BME280_humidity;BME280_pressure;Samples;Min_cycle;Max_cycle;Signal;HPM_P1;HPM_P2
2023/04/10 00:00:06;;;;;;;10.75;7.10;;;;;;;5.44;65.54;94919.56;5012684;28;20033;-74
2023/04/10 00:02:32;;;;;;;7.97;5.82;;;;;;;5.30;65.10;94900.63;5013646;28;20036;-74
2023/04/10 00:04:58;;;;;;;7.18;5.00;;;;;;;5.47;64.93;94912.47;5014245;28;20406;-74
2023/04/10 00:07:24;;;;;;;6.80;4.70;;;;;;;5.57;59.34;94915.31;5030182;28;20561;-75
2023/04/10 00:09:49;;;;;;;6.32;4.40;;;;;;;5.66;59.13;94914.75;5030699;28;20029;-73
2023/04/10 00:12:15;;;;;;;6.45;4.68;;;;;;;5.65;61.80;94910.50;5013401;28;20033;-73
2023/04/10 00:14:40;;;;;;;6.95;4.57;;;;;;;5.67;63.30;94911.25;5030495;28;20040;-73
2023/04/10 00:17:06;;;;;;;6.50;4.50;;;;;;;5.79;63.11;94904.50;5030040;28;20037;-73
2023/04/10 00:19:31;;;;;;;7.55;4.60;;;;;;;5.81;63.38;94897.50;5029775;28;20410;-74
2023/04/10 00:21:57;;;;;;;6.05;4.63;;;;;;;5.75;63.13;94903.03;5031285;28;20036;-73
2023/04/10 00:24:22;;;;;;;7.10;5.05;;;;;;;5.86;61.67;94897.22;5030112;28;20506;-74
2023/04/10 00:26:47;;;;;;;7.25;4.60;;;;;;;5.88;61.98;94900.50;5030991;28;20556;-74
2023/04/10 00:29:13;;;;;;;5.82;4.25;;;;;;;5.90;61.73;94890.94;5031286;28;20028;-74
2023/04/10 00:31:38;;;;;;;5.13;3.90;;;;;;;5.93;60.77;94895.88;5029715;28;20041;-74
2023/04/10 00:34:04;;;;;;;5.78;4.38;;;;;;;6.03;59.16;94894.44;5030559;28;20029;-74
2023/04/10 00:36:30;;;;;;;5.78;4.35;;;;;;;6.07;62.15;94885.56;5029832;28;20406;-74
2023/04/10 00:38:56;;;;;;;9.45;5.57;;;;;;;6.04;62.79;94886.59;5029853;28;20036;-74
2023/04/10 00:41:22;;;;;;;7.18;4.78;;;;;;;6.05;64.02;94879.69;5013204;28;20062;-73
2023/04/10 00:43:48;;;;;;;6.85;4.45;;;;;;;6.12;61.59;94885.28;5030799;28;20773;-74
2023/04/10 00:46:13;;;;;;;6.55;4.65;;;;;;;6.13;62.20;94874.88;5029699;28;20163;-74
2023/04/10 00:48:39;;;;;;;6.75;5.40;;;;;;;6.23;60.95;94888.81;5013254;28;20384;-73
2023/04/10 00:51:05;;;;;;;6.60;5.50;;;;;;;6.23;59.46;94883.66;5013180;28;20418;-73
2023/04/10 00:53:30;;;;;;;7.28;5.57;;;;;;;6.10;61.76;94867.31;5012714;28;20025;-74
2023/04/10 00:55:56;;;;;;;7.03;5.53;;;;;;;6.06;62.17;94862.44;5013491;28;20471;-73
2023/04/10 00:58:21;;;;;;;7.20;5.80;;;;;;;6.21;62.36;94874.34;5029548;28;20503;-73
2023/04/10 01:00:47;;;;;;;7.22;5.38;;;;;;;6.07;62.91;94871.84;5012764;28;20034;-74
2023/04/10 01:03:13;;;;;;;7.05;4.82;;;;;;;6.14;61.75;94873.09;5029723;28;20033;-73
2023/04/10 01:05:42;;;;;;;6.28;4.63;;;;;;;6.10;62.44;94869.06;5013457;28;20033;-73
2023/04/10 01:08:14;;;;;;;11.32;7.68;;;;;;;5.97;63.02;94861.28;5029035;28;20116;-74
2023/04/10 01:10:50;;;;;;;10.02;6.72;;;;;;;5.79;63.52;94851.22;5013763;28;20044;-73
2023/04/10 01:13:26;;;;;;;8.40;6.03;;;;;;;5.75;63.61;94852.31;5013706;28;20398;-73
2023/04/10 01:16:14;;;;;;;8.52;5.50;;;;;;;5.82;63.98;94853.59;5029282;28;20130;-73
2023/04/10 01:19:14;;;;;;;6.80;4.70;;;;;;;5.81;64.85;94857.06;5017914;28;20032;-73
2023/04/10 01:21:39;;;;;;;8.45;5.35;;;;;;;5.74;64.11;94850.66;5028313;28;20038;-73
2023/04/10 01:24:50;;;;;;;5.68;4.30;;;;;;;5.88;64.23;94864.41;5029017;28;20040;-73
2023/04/10 01:27:18;;;;;;;7.55;5.05;;;;;;;5.88;64.66;94867.84;4998138;28;20053;-73
2023/04/10 01:29:46;;;;;;;9.80;5.50;;;;;;;5.81;64.16;94845.94;5010894;28;20046;-74
2023/04/10 01:32:12;;;;;;;5.50;4.35;;;;;;;5.74;65.38;94842.94;5002715;28;20068;-74
2023/04/10 01:34:45;;;;;;;6.88;4.70;;;;;;;5.73;65.66;94850.75;5029384;28;20032;-74
2023/04/10 01:37:22;;;;;;;7.85;5.13;;;;;;;5.65;65.38;94838.34;5029118;28;20503;-73
2023/04/10 01:39:56;;;;;;;6.70;4.97;;;;;;;5.72;65.66;94852.50;5012920;28;20064;-74
2023/04/10 01:42:21;;;;;;;7.35;5.00;;;;;;;5.75;65.68;94862.63;5013040;28;20049;-74
2023/04/10 01:44:47;;;;;;;8.27;5.70;;;;;;;5.69;65.13;94844.97;5012348;28;20037;-73
2023/04/10 01:47:17;;;;;;;8.50;5.88;;;;;;;5.90;64.27;94865.97;5012671;28;20026;-73
2023/04/10 01:49:44;;;;;;;6.45;4.85;;;;;;;5.83;62.68;94864.72;5028929;28;20025;-73
2023/04/10 01:52:10;;;;;;;8.98;5.65;;;;;;;5.80;65.14;94867.50;5029052;28;20026;-73
2023/04/10 01:54:35;;;;;;;7.65;5.55;;;;;;;5.80;65.04;94859.75;4995893;28;20037;-73
2023/04/10 01:57:02;;;;;;;7.20;5.22;;;;;;;5.72;65.40;94852.50;5012353;28;20522;-73
2023/04/10 01:59:28;;;;;;;6.65;5.18;;;;;;;5.84;65.14;94858.63;5012656;28;20555;-74
2023/04/10 02:02:00;;;;;;;9.18;5.20;;;;;;;5.86;66.17;94859.38;5011589;28;20498;-74
2023/04/10 02:04:26;;;;;;;6.50;4.55;;;;;;;5.96;65.62;94859.63;5028971;28;20037;-74
2023/04/10 02:07:26;;;;;;;7.85;5.68;;;;;;;5.97;63.12;94862.13;5028770;28;20093;-73
2023/04/10 02:10:01;;;;;;;8.02;5.72;;;;;;;5.98;64.06;94858.59;5007270;28;20049;-74
2023/04/10 02:12:38;;;;;;;8.38;6.00;;;;;;;5.98;65.36;94850.88;5028829;28;20497;-74
2023/04/10 02:15:06;;;;;;;6.78;5.18;;;;;;;5.88;66.10;94831.75;5028679;28;20487;-73
2023/04/10 02:17:31;;;;;;;7.82;4.95;;;;;;;5.98;66.46;94834.56;5012989;28;20033;-74
2023/04/10 02:19:57;;;;;;;9.20;6.03;;;;;;;5.92;65.38;94827.22;5012368;28;20522;-74
2023/04/10 02:22:24;;;;;;;66.28;22.55;;;;;;;5.96;63.28;94829.53;5015587;28;20069;-75
2023/04/10 02:24:49;;;;;;;46.80;17.00;;;;;;;6.12;62.47;94839.66;5016233;28;20479;-74
2023/04/10 02:27:15;;;;;;;37.58;14.35;;;;;;;6.13;62.43;94828.44;5032503;28;20044;-74
2023/04/10 02:29:40;;;;;;;41.00;15.40;;;;;;;6.02;63.94;94828.31;4999633;28;20021;-74
2023/04/10 02:32:06;;;;;;;20.35;9.48;;;;;;;6.20;62.97;94832.25;5032345;28;20135;-74
2023/04/10 02:34:31;;;;;;;10.27;6.25;;;;;;;6.20;63.06;94831.44;5015735;28;20038;-74
2023/04/10 02:36:57;;;;;;;6.45;4.50;;;;;;;6.24;62.12;94823.41;5032319;28;20033;-74
2023/04/10 02:39:22;;;;;;;10.90;5.28;;;;;;;6.26;63.44;94820.72;5015895;28;20503;-74
2023/04/10 02:41:48;;;;;;;5.63;4.30;;;;;;;6.32;61.15;94809.97;5033146;28;20079;-74
2023/04/10 02:44:13;;;;;;;6.45;4.40;;;;;;;6.31;61.03;94810.09;5031954;28;20048;-74
2023/04/10 02:46:40;;;;;;;6.53;4.68;;;;;;;6.23;61.17;94801.09;5032094;28;20030;-74
2023/04/10 02:49:06;;;;;;;6.85;4.88;;;;;;;6.40;60.17;94810.28;5015588;28;20037;-74
2023/04/10 02:51:35;;;;;;;5.38;3.95;;;;;;;6.18;60.08;94767.03;5033137;28;20029;-74
2023/04/10 02:54:00;;;;;;;5.88;3.88;;;;;;;6.37;59.96;94807.09;5031675;28;20404;-75
2023/04/10 02:56:26;;;;;;;5.97;4.32;;;;;;;6.45;60.01;94812.59;5033329;28;20029;-73
2023/04/10 02:58:51;;;;;;;6.43;4.28;;;;;;;6.48;59.89;94802.06;5015598;28;20025;-73
2023/04/10 03:01:17;;;;;;;6.03;4.57;;;;;;;6.44;59.92;94805.78;5031426;28;20037;-74
2023/04/10 03:03:42;;;;;;;5.70;3.92;;;;;;;6.44;59.57;94798.84;5031598;28;20083;-74
2023/04/10 03:06:08;;;;;;;6.03;4.00;;;;;;;6.50;59.76;94805.38;5033056;28;20034;-74
2023/04/10 03:08:34;;;;;;;5.97;4.07;;;;;;;6.28;59.83;94787.09;5031321;28;20021;-75
2023/04/10 03:10:59;;;;;;;5.20;3.75;;;;;;;6.39;60.25;94802.66;5014694;28;20095;-74
2023/04/10 03:13:25;;;;;;;6.32;4.38;;;;;;;6.33;60.24;94785.03;5031463;28;20091;-74
2023/04/10 03:15:50;;;;;;;5.63;3.88;;;;;;;6.59;59.68;94802.16;5031150;28;20087;-74
2023/04/10 03:18:15;;;;;;;5.65;4.47;;;;;;;6.48;59.75;94804.63;5048104;28;20546;-74
2023/04/10 03:20:41;;;;;;;6.25;4.57;;;;;;;6.60;59.75;94800.41;5031636;28;20037;-74
2023/04/10 03:23:07;;;;;;;5.97;4.40;;;;;;;6.56;59.34;94796.38;5030786;28;20048;-74
2023/04/10 03:25:35;;;;;;;5.05;3.78;;;;;;;6.55;59.70;94795.56;5031091;28;20112;-74
2023/04/10 03:28:01;;;;;;;5.40;4.15;;;;;;;6.62;59.24;94803.72;5031205;28;20029;-75
2023/04/10 03:30:26;;;;;;;4.93;3.88;;;;;;;6.64;59.05;94805.25;5032310;28;20029;-74
2023/04/10 03:32:52;;;;;;;6.80;4.18;;;;;;;6.61;59.08;94795.16;5046979;28;20553;-74
2023/04/10 03:35:17;;;;;;;5.47;3.83;;;;;;;6.60;60.22;94795.22;5014400;28;20056;-74
2023/04/10 03:37:43;;;;;;;5.40;3.92;;;;;;;6.63;60.97;94800.19;5031913;28;20042;-74
2023/04/10 03:40:09;;;;;;;6.47;3.80;;;;;;;6.63;60.36;94810.50;5031708;28;20040;-74
2023/04/10 03:42:34;;;;;;;4.97;3.67;;;;;;;6.66;59.18;94807.75;5030686;28;20046;-74
2023/04/10 03:45:03;;;;;;;4.90;3.53;;;;;;;6.49;59.72;94796.81;5014484;28;20087;-73
2023/04/10 03:47:31;;;;;;;5.70;3.50;;;;;;;6.58;59.56;94807.44;5030899;28;20025;-73
2023/04/10 03:50:00;;;;;;;5.15;3.60;;;;;;;6.58;59.11;94812.59;5002850;28;20450;-73
2023/04/10 03:52:26;;;;;;;12.40;8.30;;;;;;;6.45;61.00;94804.84;5011044;28;20029;-73
2023/04/10 03:54:55;;;;;;;11.85;8.18;;;;;;;6.45;61.36;94815.97;5014257;28;20090;-73
2023/04/10 03:57:20;;;;;;;12.48;7.40;;;;;;;6.39;61.57;94820.75;5014368;28;20041;-74
2023/04/10 03:59:46;;;;;;;10.25;6.28;;;;;;;6.26;61.95;94820.72;5031832;28;20034;-74
2023/04/10 04:02:12;;;;;;;9.02;6.50;;;;;;;6.10;62.79;94804.56;5029164;28;20035;-74
2023/04/10 04:04:38;;;;;;;9.15;5.93;;;;;;;6.10;64.21;94825.22;5030496;28;20115;-73
2023/04/10 04:07:03;;;;;;;7.13;4.60;;;;;;;6.12;64.21;94837.09;4997561;28;20034;-73
2023/04/10 04:09:29;;;;;;;6.88;4.80;;;;;;;5.93;63.15;94797.91;5030788;28;20033;-73
2023/04/10 04:11:55;;;;;;;8.73;4.40;;;;;;;5.87;64.17;94824.91;5013865;28;20553;-73
2023/04/10 04:14:21;;;;;;;6.57;4.15;;;;;;;5.86;64.46;94830.19;5014224;28;20040;-74
2023/04/10 04:16:46;;;;;;;33.38;15.63;;;;;;;5.90;64.49;94839.34;5014151;28;20033;-74
2023/04/10 04:19:12;;;;;;;9.45;5.97;;;;;;;5.80;64.04;94829.66;5031569;28;20029;-73
2023/04/10 04:21:37;;;;;;;10.57;5.20;;;;;;;5.92;64.41;94848.66;5007114;28;20057;-73
2023/04/10 04:24:03;;;;;;;10.85;5.35;;;;;;;5.87;64.74;94839.56;5016685;28;20041;-73
2023/04/10 04:26:29;;;;;;;10.30;5.63;;;;;;;5.92;64.30;94838.34;5025753;28;20037;-73
2023/04/10 04:28:54;;;;;;;15.18;6.80;;;;;;;6.03;64.40;94845.44;5006724;28;20547;-73
2023/04/10 04:31:20;;;;;;;41.22;14.02;;;;;;;5.86;64.65;94828.44;5020817;28;20036;-74
2023/04/10 04:33:45;;;;;;;15.18;7.95;;;;;;;5.85;64.75;94842.25;5017123;28;20037;-74
2023/04/10 04:36:11;;;;;;;13.05;6.97;;;;;;;5.80;65.54;94850.28;5020652;28;20037;-73
2023/04/10 04:38:36;;;;;;;13.70;7.28;;;;;;;5.89;65.40;94854.00;5022398;28;20025;-74
2023/04/10 04:41:01;;;;;;;12.05;6.40;;;;;;;5.81;64.91;94836.44;5019895;28;20057;-74
2023/04/10 04:43:27;;;;;;;11.75;7.25;;;;;;;5.94;64.19;94851.19;5022273;28;20488;-73
2023/04/10 04:45:52;;;;;;;10.90;6.53;;;;;;;5.91;64.89;94847.00;5016902;28;20630;-73
2023/04/10 04:48:18;;;;;;;8.10;5.47;;;;;;;6.07;64.63;94859.75;5005480;28;20141;-74
2023/04/10 04:50:44;;;;;;;7.38;5.07;;;;;;;6.28;63.77;94839.50;5023448;28;20095;-74
2023/04/10 04:53:10;;;;;;;7.03;4.15;;;;;;;6.77;62.67;94856.91;5020442;28;20040;-74
2023/04/10 04:55:35;;;;;;;35.85;12.60;;;;;;;7.49;60.49;94851.94;5022664;28;20060;-74
2023/04/10 04:58:00;;;;;;;7.68;5.63;;;;;;;8.03;58.09;94832.63;5008859;28;20046;-74
2023/04/10 05:00:26;;;;;;;6.18;4.82;;;;;;;8.73;56.84;94860.28;5021034;28;20041;-75
2023/04/10 05:02:51;;;;;;;5.90;4.57;;;;;;;9.11;54.77;94820.28;5008168;28;20042;-75
2023/04/10 05:05:17;;;;;;;5.30;4.28;;;;;;;9.66;54.33;94841.91;5022966;28;20469;-73
2023/04/10 05:07:42;;;;;;;5.53;4.18;;;;;;;9.58;53.84;94845.13;5028140;28;20033;-73
2023/04/10 05:10:08;;;;;;;7.32;4.55;;;;;;;9.10;55.12;94847.13;5027956;28;20480;-73
2023/04/10 05:12:33;;;;;;;6.80;4.78;;;;;;;9.02;55.46;94858.09;5027211;28;20513;-73
2023/04/10 05:14:59;;;;;;;6.68;4.65;;;;;;;9.32;54.04;94860.09;5028856;28;20025;-73
2023/04/10 05:17:25;;;;;;;5.70;4.43;;;;;;;8.71;56.01;94864.75;5018113;28;20512;-73
2023/04/10 05:19:50;;;;;;;8.20;5.05;;;;;;;8.54;56.89;94862.59;5008100;28;20030;-73
2023/04/10 05:22:15;;;;;;;6.38;4.57;;;;;;;8.25;58.12;94847.41;5007875;28;20030;-72
2023/04/10 05:24:41;;;;;;;6.15;4.68;;;;;;;8.20;58.46;94855.50;4991705;28;20030;-73
2023/04/10 05:27:06;;;;;;;6.25;5.18;;;;;;;8.14;59.30;94861.13;5010387;28;20029;-72
2023/04/10 05:29:32;;;;;;;7.78;5.75;;;;;;;8.14;58.65;94855.13;5026278;28;20414;-73
2023/04/10 05:31:57;;;;;;;8.40;6.13;;;;;;;8.03;59.10;94854.16;5027133;28;20441;-73
2023/04/10 05:34:23;;;;;;;16.10;8.85;;;;;;;8.03;57.48;94856.72;5028360;28;20100;-73
2023/04/10 05:36:48;;;;;;;16.88;9.32;;;;;;;8.10;57.77;94858.88;5030591;28;20034;-72
2023/04/10 05:39:14;;;;;;;20.20;10.90;;;;;;;7.97;58.20;94840.84;5026532;28;20026;-73
2023/04/10 05:41:40;;;;;;;16.98;9.82;;;;;;;7.96;57.62;94847.75;5021798;28;20121;-73
2023/04/10 05:44:05;;;;;;;16.35;10.27;;;;;;;8.13;56.11;94858.66;5009608;28;20538;-72
2023/04/10 05:46:30;;;;;;;18.40;10.02;;;;;;;8.03;56.37;94853.31;5020242;28;20498;-73
2023/04/10 05:48:57;;;;;;;10.60;6.75;;;;;;;8.07;56.57;94855.56;5027684;28;20034;-73
2023/04/10 05:51:22;;;;;;;11.85;6.97;;;;;;;8.02;56.56;94857.69;5029082;28;20120;-73
2023/04/10 05:53:49;;;;;;;10.63;5.80;;;;;;;8.05;56.26;94866.94;5029336;28;20026;-73
2023/04/10 05:56:14;;;;;;;10.23;6.60;;;;;;;7.86;56.67;94867.47;5032379;28;20044;-72
2023/04/10 05:58:40;;;;;;;9.43;6.45;;;;;;;7.85;56.99;94865.78;5032942;28;20021;-72
2023/04/10 06:01:05;;;;;;;9.25;6.47;;;;;;;7.89;57.07;94866.44;5034554;28;20466;-72
2023/04/10 06:03:31;;;;;;;8.93;6.47;;;;;;;7.94;57.38;94866.91;5049520;28;20108;-72
2023/04/10 06:05:57;;;;;;;8.95;6.15;;;;;;;7.91;57.45;94859.34;5030982;28;20033;-72
2023/04/10 06:08:22;;;;;;;12.75;6.53;;;;;;;7.95;57.50;94861.63;5015387;28;20442;-72
2023/04/10 06:10:48;;;;;;;12.00;7.10;;;;;;;8.05;56.88;94866.94;5032581;28;20029;-72
2023/04/10 06:13:16;;;;;;;11.45;7.95;;;;;;;8.01;57.20;94870.72;5034280;28;20467;-72
2023/04/10 06:15:41;;;;;;;12.88;9.23;;;;;;;8.04;57.05;94868.72;5033070;28;20048;-72
2023/04/10 06:18:07;;;;;;;12.65;8.90;;;;;;;8.11;57.57;94871.72;5016066;28;20033;-73
2023/04/10 06:20:33;;;;;;;11.52;7.65;;;;;;;8.14;57.15;94853.38;5034094;28;20037;-73
2023/04/10 06:22:59;;;;;;;11.80;7.95;;;;;;;8.17;57.46;94866.09;5032690;28;20041;-72
2023/04/10 06:25:25;;;;;;;13.77;8.30;;;;;;;8.14;57.65;94866.31;5033482;28;20541;-72
2023/04/10 06:27:50;;;;;;;11.10;7.63;;;;;;;8.27;57.19;94871.41;5017660;28;20030;-73
2023/04/10 06:30:16;;;;;;;13.88;7.82;;;;;;;8.28;56.71;94865.31;4998720;28;20115;-72
2023/04/10 06:32:41;;;;;;;11.30;7.88;;;;;;;8.31;56.74;94867.66;5031209;28;20029;-73
2023/04/10 06:35:07;;;;;;;11.20;7.25;;;;;;;8.39;56.74;94861.97;5023500;28;20030;-72
2023/04/10 06:37:33;;;;;;;11.20;7.78;;;;;;;8.40;57.00;94867.03;5033993;28;20040;-72
2023/04/10 06:40:09;;;;;;;12.55;8.25;;;;;;;8.44;57.23;94855.53;5033745;28;20618;-73
2023/04/10 06:42:34;;;;;;;10.90;7.82;;;;;;;8.53;57.22;94866.13;5034360;28;20045;-73
2023/04/10 06:45:00;;;;;;;11.07;6.88;;;;;;;8.53;56.44;94851.41;5032229;28;20032;-72
2023/04/10 06:47:25;;;;;;;11.25;7.88;;;;;;;8.64;56.61;94873.94;5015586;28;20041;-72
2023/04/10 06:49:51;;;;;;;12.10;8.20;;;;;;;8.60;56.70;94872.50;5015618;28;20518;-72
2023/04/10 06:52:17;;;;;;;11.15;8.15;;;;;;;8.63;56.42;94872.25;5031147;28;20037;-73
2023/04/10 06:54:42;;;;;;;11.07;8.82;;;;;;;8.47;56.52;94870.00;5032057;28;20384;-72
2023/04/10 06:57:08;;;;;;;11.85;8.77;;;;;;;8.50;56.55;94873.19;4999064;28;20056;-72
2023/04/10 06:59:34;;;;;;;14.35;9.70;;;;;;;8.62;56.44;94876.63;5031959;28;20026;-72
2023/04/10 07:02:01;;;;;;;13.25;8.95;;;;;;;8.68;56.74;94875.34;5017939;28;20104;-72
2023/04/10 07:04:26;;;;;;;17.65;9.80;;;;;;;8.73;56.15;94873.25;5028307;28;20030;-73
2023/04/10 07:06:52;;;;;;;17.63;9.80;;;;;;;8.75;56.57;94888.66;5011098;28;20024;-72
2023/04/10 07:09:17;;;;;;;14.15;9.63;;;;;;;8.72;55.60;94882.78;5022067;28;20029;-72
2023/04/10 07:11:43;;;;;;;12.52;8.75;;;;;;;8.77;55.95;94885.00;5033007;28;20041;-72
2023/04/10 07:14:08;;;;;;;13.07;9.30;;;;;;;8.82;55.92;94877.72;5031523;28;20029;-73
2023/04/10 07:16:33;;;;;;;17.15;10.45;;;;;;;8.71;56.40;94860.41;5031351;28;20038;-74
2023/04/10 07:18:59;;;;;;;14.82;10.20;;;;;;;8.88;56.53;94874.66;5031922;28;20025;-72
2023/04/10 07:21:26;;;;;;;13.85;9.65;;;;;;;8.80;55.68;94883.97;5032409;28;20033;-73
2023/04/10 07:23:51;;;;;;;12.43;9.18;;;;;;;8.86;55.39;94881.75;5030583;28;20400;-73
2023/04/10 07:26:17;;;;;;;13.68;9.52;;;;;;;8.95;55.80;94880.22;5031518;28;20045;-73
2023/04/10 07:28:42;;;;;;;11.90;9.20;;;;;;;8.98;55.24;94886.97;5031371;28;20447;-73
2023/04/10 07:31:09;;;;;;;17.45;14.82;;;;;;;8.89;54.54;94884.13;5030512;28;20033;-72
2023/04/10 07:33:35;;;;;;;12.82;9.20;;;;;;;8.77;55.59;94873.84;5031336;28;20530;-73
2023/04/10 07:36:02;;;;;;;14.00;9.13;;;;;;;8.83;55.58;94881.13;5032144;28;20033;-71
2023/04/10 07:38:27;;;;;;;10.55;8.02;;;;;;;8.89;55.63;94886.69;5014672;28;20052;-73
2023/04/10 07:40:56;;;;;;;12.52;8.73;;;;;;;9.00;55.53;94885.06;5030956;28;20077;-73
2023/04/10 07:43:22;;;;;;;13.90;10.05;;;;;;;9.08;55.12;94887.88;5014371;28;20116;-73
2023/04/10 07:45:47;;;;;;;13.30;9.07;;;;;;;8.98;55.50;94889.53;5014713;28;20037;-73
2023/04/10 07:48:13;;;;;;;11.75;8.90;;;;;;;8.95;55.62;94881.06;5032235;28;20018;-73
2023/04/10 07:50:38;;;;;;;13.35;9.45;;;;;;;9.00;55.30;94877.28;5014501;28;20038;-72
2023/04/10 07:53:06;;;;;;;12.85;8.57;;;;;;;9.17;55.63;94885.44;5014668;28;20030;-73
2023/04/10 07:55:37;;;;;;;13.27;9.75;;;;;;;9.26;55.37;94883.09;5032141;28;20477;-73
2023/04/10 07:58:02;;;;;;;13.30;8.47;;;;;;;9.22;54.67;94874.72;5030913;28;20029;-73
2023/04/10 08:00:27;;;;;;;11.18;8.23;;;;;;;9.37;54.13;94881.31;5032133;28;20063;-73
2023/04/10 08:02:53;;;;;;;13.18;8.68;;;;;;;9.27;54.49;94877.78;5030527;28;20115;-73
2023/04/10 08:05:18;;;;;;;11.57;9.10;;;;;;;9.15;54.17;94853.63;5030708;28;20087;-73
2023/04/10 08:07:44;;;;;;;11.10;8.35;;;;;;;8.99;54.05;94878.22;5031960;28;20021;-73
2023/04/10 08:10:10;;;;;;;11.55;8.45;;;;;;;8.82;54.31;94862.19;5030494;28;20496;-72
2023/04/10 08:12:35;;;;;;;10.77;8.38;;;;;;;8.98;54.91;94881.78;5030486;28;20041;-72
2023/04/10 08:15:01;;;;;;;12.00;9.23;;;;;;;8.88;55.43;94885.03;5031805;28;20391;-73
2023/04/10 08:17:26;;;;;;;13.80;9.32;;;;;;;8.86;55.39;94876.56;5031628;28;20025;-73
2023/04/10 08:19:51;;;;;;;12.38;9.05;;;;;;;9.06;55.69;94887.22;5030416;28;20033;-72
2023/04/10 08:22:17;;;;;;;13.55;9.35;;;;;;;9.11;54.91;94887.66;5030277;28;20033;-72
2023/04/10 08:24:42;;;;;;;12.18;8.25;;;;;;;9.18;54.68;94881.06;5031515;28;20095;-73
2023/04/10 08:27:08;;;;;;;13.63;9.57;;;;;;;9.22;55.20;94874.72;5031481;28;20030;-72
2023/04/10 08:29:33;;;;;;;12.65;9.48;;;;;;;9.31;54.83;94873.19;5031502;28;20034;-72
2023/04/10 08:31:59;;;;;;;11.30;8.85;;;;;;;9.45;54.70;94885.09;5030242;28;20098;-73
2023/04/10 08:34:25;;;;;;;11.18;8.45;;;;;;;9.45;54.00;94885.09;5030151;28;20028;-73
2023/04/10 08:36:51;;;;;;;13.52;9.13;;;;;;;9.53;54.08;94882.75;5031468;28;20025;-72
2023/04/10 08:39:17;;;;;;;12.43;9.48;;;;;;;9.45;54.14;94869.53;5031483;28;20044;-73
2023/04/10 08:41:42;;;;;;;13.07;9.45;;;;;;;9.35;54.26;94874.59;5031468;28;20050;-73
2023/04/10 08:44:08;;;;;;;12.50;9.02;;;;;;;9.20;55.12;94875.78;5013620;28;20087;-72
2023/04/10 08:46:35;;;;;;;11.80;8.88;;;;;;;9.27;54.73;94876.94;5030073;28;20087;-73
2023/04/10 08:49:02;;;;;;;11.82;8.90;;;;;;;9.27;54.30;94877.78;5013644;28;20030;-73
2023/04/10 08:51:45;;;;;;;12.55;8.63;;;;;;;9.17;54.69;94879.44;5029996;28;20057;-73
2023/04/10 08:54:13;;;;;;;11.82;8.63;;;;;;;9.24;54.81;94887.56;5029929;28;20037;-72
2023/04/10 08:56:38;;;;;;;11.82;9.15;;;;;;;9.32;55.20;94872.25;5030024;28;20076;-73
2023/04/10 08:59:04;;;;;;;16.83;9.95;;;;;;;9.31;55.09;94876.63;5031049;28;20021;-74
2023/04/10 09:01:29;;;;;;;15.48;10.15;;;;;;;9.31;54.53;94880.97;5013584;28;20037;-73
2023/04/10 09:03:55;;;;;;;19.25;11.48;;;;;;;9.47;55.00;94878.84;5013329;28;20038;-73
2023/04/10 09:06:20;;;;;;;16.45;9.52;;;;;;;9.53;54.89;94877.56;5013281;28;20037;-72
2023/04/10 09:08:46;;;;;;;13.82;9.32;;;;;;;9.61;54.24;94875.16;5029786;28;20032;-73
2023/04/10 09:11:12;;;;;;;11.02;8.65;;;;;;;9.68;53.84;94865.16;5031097;28;20488;-73
2023/04/10 09:13:40;;;;;;;12.23;9.05;;;;;;;9.77;53.15;94873.03;5029920;28;20053;-72
2023/04/10 09:16:06;;;;;;;13.60;8.93;;;;;;;9.57;53.04;94873.78;5029748;28;20116;-72
2023/04/10 09:18:45;;;;;;;13.38;8.88;;;;;;;9.59;53.48;94869.28;5030796;28;20030;-73
2023/04/10 09:21:15;;;;;;;10.98;8.23;;;;;;;9.53;53.20;94865.41;5013128;28;20133;-72
2023/04/10 09:23:43;;;;;;;13.13;8.63;;;;;;;9.55;53.15;94854.91;5013782;28;20065;-72
2023/04/10 09:26:32;;;;;;;11.75;8.10;;;;;;;9.61;52.74;94855.25;5013473;28;20087;-72
2023/04/10 09:29:04;;;;;;;13.10;7.90;;;;;;;9.72;53.92;94862.22;5029542;28;20075;-72
2023/04/10 09:31:34;;;;;;;12.00;9.15;;;;;;;9.78;53.30;94860.91;5033196;28;20487;-73
2023/04/10 09:34:06;;;;;;;13.07;9.73;;;;;;;9.90;53.66;94856.50;5017162;28;20049;-73
2023/04/10 09:36:32;;;;;;;13.30;10.45;;;;;;;10.03;53.49;94849.41;5050284;28;20108;-70
2023/04/10 09:38:57;;;;;;;15.38;9.75;;;;;;;9.98;52.67;94841.16;5017020;28;20036;-69
2023/04/10 09:41:22;;;;;;;13.55;8.68;;;;;;;9.92;53.89;94852.84;5033359;28;20053;-69
2023/04/10 09:43:48;;;;;;;12.35;9.15;;;;;;;9.78;53.24;94840.16;5016940;28;20049;-70
2023/04/10 09:46:24;;;;;;;11.63;8.77;;;;;;;9.81;53.45;94837.31;5016846;28;20049;-70
2023/04/10 09:48:56;;;;;;;13.88;8.35;;;;;;;9.98;52.24;94849.75;5017933;28;20037;-70
2023/04/10 09:51:32;;;;;;;11.43;8.38;;;;;;;10.09;52.73;94845.47;5016870;28;20029;-70
2023/04/10 09:53:58;;;;;;;12.82;8.23;;;;;;;10.01;51.85;94833.94;5033579;28;20068;-70
2023/04/10 09:56:25;;;;;;;11.80;8.48;;;;;;;10.17;52.56;94832.69;5016827;28;20029;-70
2023/04/10 09:58:51;;;;;;;10.85;8.18;;;;;;;10.31;52.31;94829.84;5034318;28;20128;-71
2023/04/10 10:01:16;;;;;;;11.80;8.07;;;;;;;10.41;50.70;94835.09;5016746;28;20471;-70
2023/04/10 10:03:42;;;;;;;12.25;8.95;;;;;;;10.24;51.59;94834.66;5033075;28;20119;-70
2023/04/10 10:06:08;;;;;;;11.45;8.30;;;;;;;10.27;51.84;94831.84;5033005;28;20026;-71
2023/04/10 10:08:34;;;;;;;10.60;8.07;;;;;;;10.31;50.23;94816.03;5000390;28;20041;-70
2023/04/10 10:10:59;;;;;;;9.80;7.22;;;;;;;10.14;49.42;94826.00;5016463;28;20398;-69
2023/04/10 10:13:47;;;;;;;9.65;7.20;;;;;;;9.76;50.15;94822.09;5032753;28;20041;-71
2023/04/10 10:16:34;;;;;;;11.27;7.72;;;;;;;9.87;51.26;94820.44;5016408;28;20029;-69
2023/04/10 10:19:02;;;;;;;15.73;8.52;;;;;;;9.53;51.11;94821.31;5032753;28;20041;-69
2023/04/10 10:21:28;;;;;;;12.23;8.32;;;;;;;9.71;52.09;94819.03;5032738;28;20590;-69
2023/04/10 10:23:54;;;;;;;10.35;7.85;;;;;;;9.90;51.20;94802.00;4999851;28;20045;-71
2023/04/10 10:26:23;;;;;;;9.30;7.03;;;;;;;10.09;50.34;94809.97;5016084;28;20021;-69
2023/04/10 10:28:49;;;;;;;10.27;6.82;;;;;;;10.08;49.06;94805.69;5016593;28;20509;-69
2023/04/10 10:31:17;;;;;;;10.75;7.00;;;;;;;10.44;49.30;94804.50;5015969;28;20091;-70
2023/04/10 10:33:42;;;;;;;10.98;7.65;;;;;;;10.64;50.17;94792.50;5032521;28;20515;-69
2023/04/10 10:36:07;;;;;;;11.00;8.45;;;;;;;10.82;49.24;94789.28;5032470;28;20026;-69
2023/04/10 10:38:33;;;;;;;11.45;8.35;;;;;;;10.85;49.02;94794.22;5032305;28;20120;-69
2023/04/10 10:41:08;;;;;;;9.82;7.22;;;;;;;10.37;48.02;94789.56;5031496;28;20052;-69
2023/04/10 10:43:53;;;;;;;12.35;9.15;;;;;;;10.70;49.39;94788.56;5048895;28;20068;-69
2023/04/10 10:46:37;;;;;;;10.63;8.00;;;;;;;10.81;48.47;94780.69;5032321;28;20041;-69
2023/04/10 10:49:02;;;;;;;13.80;8.90;;;;;;;10.85;48.49;94776.03;5033420;28;20032;-69
2023/04/10 10:51:45;;;;;;;11.57;8.18;;;;;;;11.09;48.88;94771.38;5032110;28;20030;-69
2023/04/10 10:54:26;;;;;;;10.85;8.52;;;;;;;11.07;48.31;94751.66;5032036;28;20503;-70
2023/04/10 10:56:52;;;;;;;10.88;7.75;;;;;;;11.35;47.34;94765.69;5033200;28;20041;-69
2023/04/10 10:59:17;;;;;;;10.55;8.13;;;;;;;11.43;46.50;94759.84;5033196;28;20025;-69
2023/04/10 11:02:12;;;;;;;15.57;10.80;;;;;;;11.55;45.21;94756.97;4999260;28;20037;-69
2023/04/10 11:04:55;;;;;;;8.63;6.57;;;;;;;11.57;43.89;94741.25;5048500;28;20026;-69
2023/04/10 11:07:21;;;;;;;9.95;7.60;;;;;;;11.65;45.25;94743.16;5032024;28;20037;-69
2023/04/10 11:09:53;;;;;;;10.55;7.20;;;;;;;11.77;45.47;94732.47;4999010;28;20053;-70
2023/04/10 11:12:25;;;;;;;9.23;7.50;;;;;;;11.60;44.69;94730.56;5015202;28;20049;-69
2023/04/10 11:15:06;;;;;;;9.50;7.05;;;;;;;11.70;44.34;94736.59;5032936;28;20033;-69
2023/04/10 11:17:50;;;;;;;8.65;7.25;;;;;;;11.74;44.76;94734.53;5031813;28;20045;-69
2023/04/10 11:20:25;;;;;;;9.57;7.43;;;;;;;11.72;44.82;94726.03;4998768;28;20124;-69
2023/04/10 11:23:09;;;;;;;10.85;8.18;;;;;;;11.65;43.58;94722.34;5031674;28;20534;-69
2023/04/10 11:25:47;;;;;;;10.40;7.50;;;;;;;11.77;44.20;94727.28;5015354;28;20098;-69
2023/04/10 11:28:39;;;;;;;18.20;11.55;;;;;;;11.74;44.04;94722.34;5031601;28;20423;-70
2023/04/10 11:31:20;;;;;;;10.77;8.50;;;;;;;11.46;44.45;94712.75;5030203;28;20099;-69
2023/04/10 11:33:47;;;;;;;10.07;8.13;;;;;;;11.21;44.66;94721.88;5032493;28;20033;-69
2023/04/10 11:36:14;;;;;;;13.48;8.07;;;;;;;11.58;44.81;94725.47;5015060;28;20055;-69
2023/04/10 11:38:40;;;;;;;9.40;6.88;;;;;;;11.34;43.49;94718.06;5031311;28;20048;-69